createdAt,value
2022-11-24T00:01:07.011Z,4.09
2022-11-24T00:03:33.533Z,4.13
2022-11-24T00:06:10.916Z,3.98
2022-11-24T00:08:39.413Z,4.07
2022-11-24T00:11:07.878Z,4.09
2022-11-24T00:13:34.253Z,4.30
2022-11-24T00:16:06.834Z,4.10
2022-11-24T00:18:33.278Z,4.27
2022-11-24T00:20:59.740Z,4.06
2022-11-24T00:23:26.729Z,4.07
2022-11-24T00:25:53.155Z,4.32
2022-11-24T00:28:19.602Z,4.31
2022-11-24T00:30:46.085Z,4.15
2022-11-24T00:33:12.537Z,4.14
2022-11-24T00:35:38.957Z,4.14
2022-11-24T00:38:05.380Z,4.20
2022-11-24T00:40:34.983Z,4.21
2022-11-24T00:43:01.673Z,4.27
2022-11-24T00:45:28.087Z,4.07
2022-11-24T00:47:54.482Z,4.20
2022-11-24T00:50:21.274Z,4.20
2022-11-24T00:52:47.701Z,4.31
2022-11-24T00:55:14.104Z,4.44
2022-11-24T00:57:40.509Z,4.37
2022-11-24T01:00:07.831Z,4.37
2022-11-24T01:02:34.292Z,4.43
2022-11-24T01:05:00.743Z,4.63
2022-11-24T01:07:27.187Z,4.27
2022-11-24T01:09:53.610Z,4.34
2022-11-24T01:12:20.105Z,4.43
2022-11-24T01:14:46.545Z,4.32
2022-11-24T01:17:12.935Z,4.36
2022-11-24T01:19:39.345Z,4.22
2022-11-24T01:22:05.801Z,4.21
2022-11-24T01:24:32.399Z,4.24
2022-11-24T01:26:59.325Z,4.28
2022-11-24T01:29:25.971Z,4.27
2022-11-24T01:31:52.374Z,4.23
2022-11-24T01:34:19.278Z,4.23
2022-11-24T01:36:45.720Z,4.29
2022-11-24T01:39:13.210Z,4.16
2022-11-24T01:41:39.941Z,4.18
2022-11-24T01:44:27.705Z,4.19
2022-11-24T01:47:00.739Z,4.14
2022-11-24T01:49:37.982Z,4.09
2022-11-24T01:52:11.521Z,4.16
2022-11-24T01:54:43.662Z,4.14
2022-11-24T01:57:20.821Z,3.89
2022-11-24T01:59:49.760Z,3.92
2022-11-24T02:02:17.416Z,3.96
2022-11-24T02:04:45.027Z,3.87
2022-11-24T02:07:12.773Z,4.06
2022-11-24T02:09:45.578Z,3.96
2022-11-24T02:12:12.462Z,3.91
2022-11-24T02:14:41.841Z,3.99
2022-11-24T02:17:08.657Z,3.93
2022-11-24T02:19:41.222Z,3.91
2022-11-24T02:22:19.911Z,3.98
2022-11-24T02:25:01.439Z,3.87
2022-11-24T02:27:28.092Z,4.06
2022-11-24T02:29:54.510Z,4.13
2022-11-24T02:32:21.870Z,4.05
2022-11-24T02:34:48.278Z,3.95
2022-11-24T02:37:14.662Z,3.92
2022-11-24T02:39:41.060Z,3.85
2022-11-24T02:42:12.925Z,3.82
2022-11-24T02:44:45.278Z,3.92
2022-11-24T02:47:12.957Z,4.00
2022-11-24T02:49:39.866Z,4.03
2022-11-24T02:52:06.986Z,3.99
2022-11-24T02:54:33.834Z,3.94
2022-11-24T02:57:00.953Z,4.06
2022-11-24T02:59:27.379Z,3.95
2022-11-24T03:01:53.878Z,4.05
2022-11-24T03:04:20.498Z,4.03
2022-11-24T03:06:46.922Z,4.00
2022-11-24T03:09:13.346Z,4.00
2022-11-24T03:11:39.916Z,4.09
2022-11-24T03:14:06.901Z,4.05
2022-11-24T03:16:33.833Z,4.02
2022-11-24T03:19:00.887Z,4.04
2022-11-24T03:21:27.641Z,4.13
2022-11-24T03:23:54.196Z,4.15
2022-11-24T03:26:24.168Z,4.10
2022-11-24T03:28:53.490Z,4.24
2022-11-24T03:31:20.032Z,4.27
2022-11-24T03:33:46.559Z,4.27
2022-11-24T03:36:13.013Z,4.49
2022-11-24T03:38:39.401Z,4.26
2022-11-24T03:41:05.874Z,4.45
2022-11-24T03:43:32.436Z,4.36
2022-11-24T03:45:59.089Z,4.46
2022-11-24T03:48:25.884Z,4.38
2022-11-24T03:50:57.270Z,4.27
2022-11-24T03:53:25.091Z,4.36
2022-11-24T03:55:51.646Z,4.48
2022-11-24T03:58:18.892Z,4.36
2022-11-24T04:00:45.549Z,4.35
2022-11-24T04:03:12.011Z,4.52
2022-11-24T04:05:38.489Z,4.50
2022-11-24T04:08:05.641Z,4.39
2022-11-24T04:10:34.090Z,4.41
2022-11-24T04:13:00.397Z,4.43
2022-11-24T04:15:26.814Z,4.52
2022-11-24T04:17:55.114Z,4.63
2022-11-24T04:20:22.341Z,4.62
2022-11-24T04:22:51.602Z,4.65
2022-11-24T04:25:18.130Z,4.75
2022-11-24T04:27:44.830Z,4.71
2022-11-24T04:30:11.426Z,4.85
2022-11-24T04:32:37.866Z,4.75
2022-11-24T04:35:04.758Z,4.70
2022-11-24T04:37:31.175Z,4.67
2022-11-24T04:39:57.594Z,4.72
2022-11-24T04:42:24.066Z,4.63
2022-11-24T04:44:50.460Z,4.66
2022-11-24T04:47:20.672Z,4.66
2022-11-24T04:49:49.005Z,4.90
2022-11-24T04:52:19.540Z,4.66
2022-11-24T04:54:46.800Z,4.73
2022-11-24T04:57:19.402Z,4.85
2022-11-24T04:59:46.126Z,4.70
2022-11-24T05:02:13.034Z,4.70
2022-11-24T05:04:39.991Z,4.71
2022-11-24T05:07:07.606Z,4.62
2022-11-24T05:09:55.225Z,4.76
2022-11-24T05:12:20.559Z,4.70
2022-11-24T05:14:46.962Z,4.73
2022-11-24T05:17:13.358Z,4.67
2022-11-24T05:19:39.745Z,5.06
2022-11-24T05:22:06.205Z,4.99
2022-11-24T05:24:32.929Z,4.87
2022-11-24T05:26:59.490Z,4.95
2022-11-24T05:29:26.000Z,4.86
2022-11-24T05:31:52.449Z,4.79
2022-11-24T05:34:19.539Z,4.92
2022-11-24T05:36:55.043Z,4.91
2022-11-24T05:39:21.489Z,4.90
2022-11-24T05:41:48.042Z,5.01
2022-11-24T05:44:14.507Z,4.93
2022-11-24T05:46:40.974Z,5.04
2022-11-24T05:49:07.465Z,4.95
2022-11-24T05:51:34.105Z,5.04
2022-11-24T05:54:00.543Z,5.13
2022-11-24T05:56:26.951Z,5.13
2022-11-24T05:58:53.450Z,5.32
2022-11-24T06:01:19.894Z,5.09
2022-11-24T06:03:46.298Z,5.04
2022-11-24T06:06:12.703Z,5.06
2022-11-24T06:08:39.222Z,5.03
2022-11-24T06:11:22.674Z,4.91
2022-11-24T06:13:49.264Z,4.87
2022-11-24T06:16:17.121Z,4.79
2022-11-24T06:18:43.719Z,4.97
2022-11-24T06:21:11.472Z,4.88
2022-11-24T06:23:38.823Z,4.88
2022-11-24T06:26:05.812Z,4.93
2022-11-24T06:28:32.525Z,4.86
2022-11-24T06:31:03.578Z,4.85
2022-11-24T06:33:34.493Z,5.06
2022-11-24T06:36:03.400Z,5.25
2022-11-24T06:38:30.350Z,5.04
2022-11-24T06:41:08.334Z,5.12
2022-11-24T06:43:35.943Z,5.23
2022-11-24T06:46:03.425Z,5.01
2022-11-24T06:48:30.851Z,4.98
2022-11-24T06:51:02.121Z,4.91
2022-11-24T06:53:32.737Z,4.96
2022-11-24T06:55:59.893Z,4.92
2022-11-24T06:58:26.610Z,4.92
2022-11-24T07:00:53.135Z,4.91
2022-11-24T07:03:19.984Z,4.90
2022-11-24T07:05:46.515Z,5.11
2022-11-24T07:08:17.633Z,4.99
2022-11-24T07:10:44.465Z,4.98
2022-11-24T07:13:10.918Z,4.92
2022-11-24T07:15:37.414Z,4.94
2022-11-24T07:18:04.237Z,5.03
2022-11-24T07:20:30.767Z,4.95
2022-11-24T07:22:58.123Z,5.24
2022-11-24T07:25:25.747Z,5.19
2022-11-24T07:27:59.331Z,5.29
2022-11-24T07:30:27.162Z,5.17
2022-11-24T07:33:03.071Z,5.26
2022-11-24T07:35:30.433Z,5.16
2022-11-24T07:37:58.230Z,5.14
2022-11-24T07:40:26.824Z,5.23
2022-11-24T07:42:54.152Z,5.23
2022-11-24T07:45:21.373Z,5.16
2022-11-24T07:47:47.882Z,5.19
2022-11-24T07:50:14.490Z,5.21
2022-11-24T07:52:41.035Z,5.22
2022-11-24T07:55:08.097Z,5.28
2022-11-24T07:57:34.803Z,5.26
2022-11-24T08:00:01.834Z,5.31
2022-11-24T08:02:28.275Z,5.27
2022-11-24T08:04:54.734Z,5.35
2022-11-24T08:07:21.246Z,5.27
2022-11-24T08:09:48.273Z,5.34
2022-11-24T08:12:16.448Z,5.38
2022-11-24T08:14:43.505Z,5.50
2022-11-24T08:17:10.013Z,5.51
2022-11-24T08:19:36.524Z,5.45
2022-11-24T08:22:02.932Z,5.43
2022-11-24T08:24:31.421Z,5.73
2022-11-24T08:26:58.007Z,5.77
2022-11-24T08:29:28.332Z,5.73
2022-11-24T08:31:57.185Z,5.76
2022-11-24T08:34:25.948Z,5.89
2022-11-24T08:36:52.644Z,6.02
2022-11-24T08:39:20.275Z,6.20
2022-11-24T08:41:46.774Z,6.03
2022-11-24T08:44:15.839Z,6.21
2022-11-24T08:46:42.377Z,6.13
2022-11-24T08:49:09.750Z,6.08
2022-11-24T08:51:36.727Z,6.12
2022-11-24T08:54:03.501Z,6.18
2022-11-24T08:56:32.112Z,6.16
2022-11-24T08:58:58.655Z,6.07
2022-11-24T09:01:26.508Z,5.94
2022-11-24T09:03:53.504Z,6.26
2022-11-24T09:06:23.625Z,6.43
2022-11-24T09:08:51.657Z,6.57
2022-11-24T09:11:18.734Z,6.46
2022-11-24T09:13:45.577Z,6.32
2022-11-24T09:16:15.265Z,6.24
2022-11-24T09:18:41.821Z,6.39
2022-11-24T09:21:19.792Z,6.40
2022-11-24T09:23:48.747Z,6.35
2022-11-24T09:26:18.823Z,6.46
2022-11-24T09:28:45.913Z,6.57
2022-11-24T09:31:14.438Z,6.66
2022-11-24T09:33:41.605Z,6.91
2022-11-24T09:36:08.723Z,6.90
2022-11-24T09:38:35.520Z,6.75
2022-11-24T09:41:23.135Z,6.68
2022-11-24T09:44:04.738Z,6.67
2022-11-24T09:46:54.725Z,6.77
2022-11-24T09:49:35.389Z,6.85
2022-11-24T09:52:09.391Z,6.67
2022-11-24T09:54:41.248Z,6.80
2022-11-24T09:57:13.771Z,6.70
2022-11-24T09:59:42.027Z,6.81
2022-11-24T10:02:11.994Z,6.75
2022-11-24T10:04:47.009Z,6.92
2022-11-24T10:07:21.113Z,6.83
2022-11-24T10:10:33.880Z,6.73
2022-11-24T10:13:31.360Z,6.83
2022-11-24T10:16:31.519Z,6.93
2022-11-24T10:19:13.077Z,6.95
2022-11-24T10:22:04.167Z,6.98
2022-11-24T10:25:10.802Z,6.86
2022-11-24T10:27:42.717Z,6.81
2022-11-24T10:30:18.726Z,7.06
2022-11-24T10:32:48.165Z,6.78
2022-11-24T10:35:24.329Z,6.86
2022-11-24T10:38:21.912Z,7.04
2022-11-24T10:40:57.489Z,6.92
2022-11-24T10:43:29.321Z,7.02
2022-11-24T10:46:28.969Z,7.23
2022-11-24T10:49:00.303Z,7.34
2022-11-24T10:51:47.510Z,7.00
2022-11-24T10:54:18.220Z,7.01
2022-11-24T10:56:46.383Z,7.00
2022-11-24T10:59:28.896Z,6.98
2022-11-24T11:01:55.944Z,7.09
2022-11-24T11:04:31.532Z,7.05
2022-11-24T11:07:18.446Z,7.24
2022-11-24T11:09:45.832Z,7.23
2022-11-24T11:12:43.984Z,7.58
2022-11-24T11:15:31.106Z,7.85
2022-11-24T11:18:01.287Z,7.63
2022-11-24T11:20:31.638Z,7.71
2022-11-24T11:23:01.771Z,7.82
2022-11-24T11:25:32.834Z,7.62
2022-11-24T11:28:23.331Z,7.78
2022-11-24T11:34:16.652Z,8.07
2022-11-24T11:36:53.308Z,8.14
2022-11-24T11:39:30.261Z,8.12
2022-11-24T11:42:08.115Z,8.22
2022-11-24T11:44:37.215Z,8.07
2022-11-24T11:47:32.133Z,8.14
2022-11-24T11:49:58.638Z,8.32
2022-11-24T11:52:43.811Z,8.12
2022-11-24T11:55:17.882Z,7.89
2022-11-24T11:58:01.716Z,8.17
2022-11-24T12:00:31.607Z,8.15
2022-11-24T12:03:42.244Z,8.27
2022-11-24T12:06:16.703Z,8.58
2022-11-24T12:09:18.534Z,8.59
2022-11-24T12:11:46.717Z,8.15
2022-11-24T12:14:47.069Z,8.20
2022-11-24T12:17:37.904Z,8.27
2022-11-24T12:20:20.812Z,8.32
2022-11-24T12:23:11.173Z,8.05
2022-11-24T12:26:00.461Z,8.29
2022-11-24T12:28:39.489Z,8.29
2022-11-24T12:31:21.297Z,8.20
2022-11-24T12:34:32.807Z,8.24
2022-11-24T12:37:09.398Z,8.45
2022-11-24T12:39:43.066Z,8.54
2022-11-24T12:42:39.444Z,8.48
2022-11-24T12:45:08.975Z,8.27
2022-11-24T12:48:00.502Z,8.41
2022-11-24T12:50:31.011Z,8.41
2022-11-24T12:53:06.005Z,8.70
2022-11-24T12:55:33.902Z,8.31
2022-11-24T12:58:11.974Z,8.38
2022-11-24T13:00:58.607Z,8.44
2022-11-24T13:03:47.542Z,8.38
2022-11-24T13:06:23.841Z,8.33
2022-11-24T13:08:50.535Z,8.45
2022-11-24T13:11:23.113Z,8.48
2022-11-24T13:14:13.142Z,8.36
2022-11-24T13:17:28.140Z,8.30
2022-11-24T13:19:46.904Z,8.20
2022-11-24T13:22:24.269Z,8.39
2022-11-24T13:25:18.811Z,8.17
2022-11-24T13:27:48.431Z,8.21
2022-11-24T13:30:32.934Z,8.16
2022-11-24T13:33:16.209Z,8.39
2022-11-24T13:36:02.166Z,8.32
2022-11-24T13:38:52.571Z,8.15
2022-11-24T13:41:34.233Z,8.27
2022-11-24T13:44:15.845Z,8.16
2022-11-24T13:47:04.779Z,8.37
2022-11-24T13:49:38.951Z,8.11
2022-11-24T13:52:36.595Z,8.09
2022-11-24T13:55:19.518Z,8.02
2022-11-24T13:57:49.136Z,8.03
2022-11-24T14:00:26.398Z,7.89
2022-11-24T14:02:57.742Z,7.86
2022-11-24T14:05:33.511Z,7.91
2022-11-24T14:08:00.235Z,7.80
2022-11-24T14:10:32.330Z,7.73
2022-11-24T14:13:25.259Z,7.73
2022-11-24T14:16:00.641Z,7.80
2022-11-24T14:18:29.161Z,7.56
2022-11-24T14:21:01.346Z,7.75
2022-11-24T14:23:27.769Z,7.82
2022-11-24T14:25:54.506Z,7.84
2022-11-24T14:28:26.779Z,7.83
2022-11-24T14:31:22.889Z,7.97
2022-11-24T14:33:50.086Z,8.00
2022-11-24T14:36:18.066Z,7.72
2022-11-24T14:38:44.710Z,7.72
2022-11-24T14:41:23.008Z,7.71
2022-11-24T14:43:49.674Z,7.86
2022-11-24T14:46:19.990Z,7.61
2022-11-24T14:48:50.102Z,7.74
2022-11-24T14:51:49.615Z,7.69
2022-11-24T14:54:21.412Z,7.67
2022-11-24T14:57:01.679Z,7.55
2022-11-24T14:59:29.918Z,7.63
2022-11-24T15:01:57.576Z,7.41
2022-11-24T15:05:02.046Z,7.34
2022-11-24T15:07:28.908Z,7.59
2022-11-24T15:10:00.749Z,7.56
2022-11-24T15:12:36.627Z,7.49
2022-11-24T15:15:06.694Z,7.48
2022-11-24T15:17:33.830Z,7.61
2022-11-24T15:20:02.639Z,7.53
2022-11-24T15:22:29.097Z,7.46
2022-11-24T15:24:55.548Z,7.30
2022-11-24T15:27:21.937Z,7.25
2022-11-24T15:29:48.450Z,7.39
2022-11-24T15:32:15.707Z,7.49
2022-11-24T15:34:42.112Z,7.47
2022-11-24T15:37:09.333Z,7.40
2022-11-24T15:39:35.949Z,7.39
2022-11-24T15:42:02.413Z,7.33
2022-11-24T15:44:29.544Z,7.41
2022-11-24T15:46:56.042Z,7.36
2022-11-24T15:49:22.473Z,7.32
2022-11-24T15:51:48.927Z,7.35
2022-11-24T15:54:18.723Z,7.40
2022-11-24T15:56:45.612Z,7.29
2022-11-24T15:59:20.709Z,7.00
2022-11-24T16:01:49.579Z,7.04
2022-11-24T16:04:16.342Z,6.89
2022-11-24T16:06:42.891Z,6.63
2022-11-24T16:09:14.530Z,6.54
2022-11-24T16:11:40.991Z,6.33
2022-11-24T16:14:07.487Z,6.35
2022-11-24T16:16:33.980Z,6.56
2022-11-24T16:19:00.429Z,6.68
2022-11-24T16:21:26.851Z,6.74
2022-11-24T16:23:53.883Z,6.68
2022-11-24T16:26:20.553Z,6.69
2022-11-24T16:28:47.202Z,6.79
2022-11-24T16:31:15.817Z,6.80
2022-11-24T16:33:44.541Z,6.79
2022-11-24T16:36:11.087Z,6.82
2022-11-24T16:38:37.491Z,6.82
2022-11-24T16:41:03.959Z,6.86
2022-11-24T16:43:30.413Z,6.90
2022-11-24T16:46:17.857Z,6.80
2022-11-24T16:48:46.584Z,6.81
2022-11-24T16:51:13.659Z,6.84
2022-11-24T16:53:43.357Z,6.88
2022-11-24T16:56:09.966Z,7.06
2022-11-24T16:58:40.302Z,7.07
2022-11-24T17:01:08.356Z,7.01
2022-11-24T17:03:38.157Z,7.11
2022-11-24T17:06:11.315Z,7.06
2022-11-24T17:08:39.674Z,7.07
2022-11-24T17:11:13.373Z,7.06
2022-11-24T17:13:40.323Z,7.02
2022-11-24T17:16:09.031Z,7.07
2022-11-24T17:18:36.205Z,7.22
2022-11-24T17:21:09.264Z,7.17
2022-11-24T17:23:36.489Z,7.12
2022-11-24T17:26:21.652Z,7.00
2022-11-24T17:28:48.104Z,6.95
2022-11-24T17:31:25.500Z,6.99
2022-11-24T17:33:57.268Z,6.92
2022-11-24T17:36:24.272Z,7.09
2022-11-24T17:38:50.940Z,6.98
2022-11-24T17:41:18.559Z,6.98
2022-11-24T17:43:50.157Z,7.26
2022-11-24T17:46:16.825Z,7.21
2022-11-24T17:48:43.261Z,7.22
2022-11-24T17:51:14.997Z,7.19
2022-11-24T17:53:43.118Z,7.18
2022-11-24T17:56:14.844Z,7.20
2022-11-24T17:58:43.137Z,7.10
2022-11-24T18:01:11.037Z,7.11
2022-11-24T18:03:41.995Z,7.07
2022-11-24T18:06:13.787Z,7.04
2022-11-24T18:08:42.342Z,7.08
2022-11-24T18:11:12.210Z,7.02
2022-11-24T18:16:28.007Z,7.31
2022-11-24T18:19:07.886Z,7.19
2022-11-24T18:21:39.386Z,7.23
2022-11-24T18:24:07.065Z,7.28
2022-11-24T18:26:33.520Z,7.23
2022-11-24T18:28:59.925Z,7.17
2022-11-24T18:31:26.660Z,7.19
2022-11-24T18:33:53.089Z,7.40
2022-11-24T18:36:25.769Z,7.32
2022-11-24T18:38:56.292Z,7.10
2022-11-24T18:41:22.708Z,6.83
2022-11-24T18:43:49.090Z,6.59
2022-11-24T18:46:17.317Z,6.51
2022-11-24T18:48:44.340Z,6.42
2022-11-24T18:51:14.858Z,6.36
2022-11-24T18:53:42.833Z,6.51
2022-11-24T18:56:13.453Z,6.29
2022-11-24T18:58:39.838Z,6.18
2022-11-24T19:01:18.127Z,6.29
2022-11-24T19:03:48.903Z,6.14
2022-11-24T19:06:33.881Z,5.92
2022-11-24T19:09:26.662Z,5.92
2022-11-24T19:11:53.125Z,5.70
2022-11-24T19:14:19.715Z,5.82
2022-11-24T19:16:47.974Z,5.96
2022-11-24T19:19:15.090Z,5.97
2022-11-24T19:21:41.632Z,5.95
2022-11-24T19:24:13.012Z,5.90
2022-11-24T19:26:40.366Z,5.93
2022-11-24T19:29:08.019Z,5.65
2022-11-24T19:31:35.288Z,5.60
2022-11-24T19:34:03.061Z,5.55
2022-11-24T19:36:30.039Z,5.52
2022-11-24T19:38:57.879Z,5.47
2022-11-24T19:41:29.588Z,5.29
2022-11-24T19:43:56.671Z,5.36
2022-11-24T19:46:27.317Z,5.55
2022-11-24T19:48:56.848Z,5.78
2022-11-24T19:51:25.579Z,5.80
2022-11-24T19:53:52.864Z,5.83
2022-11-24T19:56:21.942Z,5.91
2022-11-24T19:58:49.494Z,6.00
2022-11-24T20:01:27.575Z,6.01
2022-11-24T20:03:55.734Z,6.00
2022-11-24T20:06:22.246Z,6.09
2022-11-24T20:08:49.063Z,6.11
2022-11-24T20:11:18.661Z,6.26
2022-11-24T20:13:46.346Z,6.23
2022-11-24T20:16:17.385Z,6.19
2022-11-24T20:18:46.901Z,6.19
2022-11-24T20:21:19.585Z,6.21
2022-11-24T20:23:51.667Z,5.93
2022-11-24T20:26:20.817Z,5.78
2022-11-24T20:28:47.565Z,5.66
2022-11-24T20:31:17.294Z,5.66
2022-11-24T20:33:44.797Z,5.61
2022-11-24T20:36:16.888Z,5.55
2022-11-24T20:38:44.422Z,5.36
2022-11-24T20:41:19.900Z,5.08
2022-11-24T20:43:48.187Z,5.10
2022-11-24T20:46:20.271Z,5.19
2022-11-24T20:48:47.070Z,5.08
2022-11-24T20:51:43.717Z,4.99
2022-11-24T20:54:12.843Z,4.98
2022-11-24T20:56:42.230Z,4.96
2022-11-24T20:59:12.214Z,4.85
2022-11-24T21:01:42.209Z,4.63
2022-11-24T21:04:15.446Z,4.61
2022-11-24T21:06:41.982Z,4.48
2022-11-24T21:09:09.373Z,4.57
2022-11-24T21:11:37.649Z,4.64
2022-11-24T21:14:04.814Z,4.63
2022-11-24T21:16:33.800Z,4.49
2022-11-24T21:19:02.766Z,4.50
2022-11-24T21:21:34.000Z,4.48
2022-11-24T21:24:06.055Z,4.62
2022-11-24T21:26:36.887Z,4.60
2022-11-24T21:29:03.913Z,4.58
2022-11-24T21:31:30.450Z,4.44
2022-11-24T21:33:56.894Z,4.74
2022-11-24T21:36:25.796Z,4.59
2022-11-24T21:38:57.123Z,4.50
2022-11-24T21:41:25.559Z,4.37
2022-11-24T21:43:52.118Z,4.27
2022-11-24T21:46:18.767Z,4.19
2022-11-24T21:48:45.233Z,4.18
2022-11-24T21:51:14.466Z,4.11
2022-11-24T21:53:41.917Z,4.08
2022-11-24T21:56:12.860Z,3.96
2022-11-24T21:58:51.207Z,3.75
2022-11-24T22:01:19.910Z,3.83
2022-11-24T22:03:46.411Z,3.76
2022-11-24T22:06:13.588Z,3.63
2022-11-24T22:08:40.776Z,3.58
2022-11-24T22:11:11.849Z,3.59
2022-11-24T22:13:38.919Z,3.64
2022-11-24T22:16:10.822Z,3.72
2022-11-24T22:18:39.834Z,3.67
2022-11-24T22:21:08.458Z,3.72
2022-11-24T22:23:35.741Z,3.71
2022-11-24T22:26:07.532Z,3.69
2022-11-24T22:28:35.423Z,3.64
2022-11-24T22:31:10.917Z,3.61
2022-11-24T22:33:37.688Z,3.44
2022-11-24T22:36:04.370Z,3.35
2022-11-24T22:38:31.238Z,3.43
2022-11-24T22:41:03.077Z,3.47
2022-11-24T22:43:34.357Z,3.48
2022-11-24T22:46:12.123Z,3.42
2022-11-24T22:48:39.787Z,3.24
2022-11-24T22:51:29.475Z,3.34
2022-11-24T22:53:57.901Z,3.23
2022-11-24T22:56:24.804Z,3.14
2022-11-24T22:58:51.583Z,3.20
2022-11-24T23:01:20.811Z,3.20
2022-11-24T23:03:48.795Z,3.16
2022-11-24T23:06:17.575Z,3.01
2022-11-24T23:08:44.309Z,2.91
2022-11-24T23:11:12.287Z,3.12
2022-11-24T23:13:38.781Z,3.09
2022-11-24T23:16:16.834Z,3.18
2022-11-24T23:18:44.558Z,3.26
2022-11-24T23:21:19.310Z,3.35
2022-11-24T23:23:47.168Z,3.44
2022-11-24T23:26:16.312Z,3.27
2022-11-24T23:28:45.737Z,3.27
2022-11-24T23:31:16.472Z,3.27
2022-11-24T23:33:43.526Z,3.41
2022-11-24T23:36:15.383Z,3.29
2022-11-24T23:38:42.753Z,3.26
2022-11-24T23:41:31.612Z,3.28
2022-11-24T23:43:58.188Z,3.31
2022-11-24T23:46:26.910Z,3.25
2022-11-24T23:48:54.698Z,2.97
2022-11-24T23:51:27.075Z,2.84
2022-11-24T23:53:54.377Z,2.85
2022-11-24T23:56:27.201Z,2.97
2022-11-24T23:58:53.928Z,2.85
